createdAt,value
2019-06-01T00:01:52.009Z,99.90
2019-06-01T00:04:22.241Z,99.90
2019-06-01T00:06:52.434Z,99.90
2019-06-01T00:09:22.630Z,99.90
2019-06-01T00:11:52.842Z,99.90
2019-06-01T00:14:23.045Z,99.90
2019-06-01T00:16:53.250Z,99.90
2019-06-01T00:19:23.465Z,99.90
2019-06-01T00:21:54.332Z,99.90
2019-06-01T00:24:24.566Z,99.90
2019-06-01T00:26:54.771Z,99.90
2019-06-01T00:29:24.992Z,99.90
2019-06-01T00:31:55.200Z,99.90
2019-06-01T00:34:25.460Z,99.90
2019-06-01T00:36:55.701Z,99.90
2019-06-01T00:39:25.897Z,99.90
2019-06-01T00:41:56.138Z,99.90
2019-06-01T00:44:26.344Z,99.90
2019-06-01T00:46:56.572Z,99.90
2019-06-01T00:49:26.769Z,99.90
2019-06-01T00:51:57.017Z,99.90
2019-06-01T00:54:27.223Z,99.90
2019-06-01T00:56:57.606Z,99.90
2019-06-01T00:59:27.795Z,99.90
2019-06-01T01:01:58.016Z,99.90
2019-06-01T01:04:28.229Z,99.90
2019-06-01T01:06:58.449Z,99.90
2019-06-01T01:09:28.645Z,99.90
2019-06-01T01:11:58.865Z,99.90
2019-06-01T01:14:29.080Z,99.90
2019-06-01T01:16:59.280Z,99.90
2019-06-01T01:19:29.527Z,99.90
2019-06-01T01:22:00.022Z,99.90
2019-06-01T01:24:30.221Z,99.90
2019-06-01T01:27:00.445Z,99.90
2019-06-01T01:29:30.763Z,99.90
2019-06-01T01:32:01.000Z,99.90
2019-06-01T01:34:31.218Z,99.90
2019-06-01T01:37:01.409Z,99.90
2019-06-01T01:39:31.673Z,99.90
2019-06-01T01:42:01.886Z,99.90
2019-06-01T01:44:32.075Z,99.90
2019-06-01T01:47:02.283Z,99.90
2019-06-01T01:49:32.493Z,99.90
2019-06-01T01:52:02.754Z,99.90
2019-06-01T01:54:32.963Z,99.90
2019-06-01T01:57:03.264Z,99.90
2019-06-01T01:59:33.468Z,99.90
2019-06-01T02:02:03.724Z,99.90
2019-06-01T02:04:34.117Z,99.90
2019-06-01T02:07:04.600Z,99.90
2019-06-01T02:09:34.799Z,99.90
2019-06-01T02:12:05.351Z,99.90
2019-06-01T02:14:35.653Z,99.90
2019-06-01T02:17:05.882Z,99.90
2019-06-01T02:19:36.665Z,99.90
2019-06-01T02:22:06.967Z,99.90
2019-06-01T02:24:37.256Z,99.90
2019-06-01T02:27:07.468Z,99.90
2019-06-01T02:29:37.671Z,99.90
2019-06-01T02:32:08.025Z,99.90
2019-06-01T02:34:38.250Z,99.90
2019-06-01T02:37:08.493Z,99.90
2019-06-01T02:39:38.882Z,99.90
2019-06-01T02:42:10.755Z,99.90
2019-06-01T02:44:41.030Z,99.90
2019-06-01T02:47:11.366Z,99.90
2019-06-01T02:49:41.568Z,99.90
2019-06-01T02:52:11.812Z,99.90
2019-06-01T02:54:42.025Z,99.90
2019-06-01T02:57:12.262Z,99.90
2019-06-01T02:59:42.450Z,99.90
2019-06-01T03:02:15.015Z,99.90
2019-06-01T03:04:45.149Z,99.90
2019-06-01T03:07:16.512Z,99.90
2019-06-01T03:09:47.237Z,99.90
2019-06-01T03:12:20.270Z,99.90
2019-06-01T03:14:52.182Z,99.90
2019-06-01T03:17:24.800Z,99.90
2019-06-01T03:19:57.504Z,99.90
2019-06-01T03:22:29.072Z,99.90
2019-06-01T03:25:08.072Z,99.90
2019-06-01T03:27:40.456Z,99.90
2019-06-01T03:30:15.468Z,99.90
2019-06-01T03:32:44.581Z,99.90
2019-06-01T03:35:14.868Z,99.90
2019-06-01T03:37:45.135Z,99.90
2019-06-01T03:40:23.568Z,99.90
2019-06-01T03:42:47.597Z,99.90
2019-06-01T03:45:17.806Z,99.90
2019-06-01T03:47:48.010Z,99.90
2019-06-01T03:50:18.223Z,99.90
2019-06-01T03:52:48.416Z,99.90
2019-06-01T03:55:18.622Z,99.90
2019-06-01T03:57:48.841Z,99.90
2019-06-01T04:00:19.055Z,99.90
2019-06-01T04:02:49.548Z,99.90
2019-06-01T04:05:19.764Z,99.90
2019-06-01T04:07:49.972Z,99.90
2019-06-01T04:10:20.270Z,99.90
2019-06-01T04:12:50.458Z,99.90
2019-06-01T04:15:20.842Z,99.90
2019-06-01T04:17:51.070Z,99.90
2019-06-01T04:20:21.300Z,99.90
2019-06-01T04:22:51.513Z,99.90
2019-06-01T04:25:21.732Z,99.90
2019-06-01T04:27:51.961Z,99.90
2019-06-01T04:30:26.692Z,99.90
2019-06-01T04:32:56.900Z,99.90
2019-06-01T04:35:27.100Z,99.90
2019-06-01T04:37:57.328Z,99.90
2019-06-01T04:40:27.519Z,99.90
2019-06-01T04:42:57.851Z,99.90
2019-06-01T04:45:28.173Z,99.90
2019-06-01T04:47:58.457Z,99.90
2019-06-01T04:50:28.668Z,99.90
2019-06-01T04:52:59.153Z,99.90
2019-06-01T04:55:29.367Z,99.90
2019-06-01T04:57:59.592Z,99.90
2019-06-01T05:00:29.783Z,99.90
2019-06-01T05:03:05.222Z,99.90
2019-06-01T05:05:31.932Z,99.90
2019-06-01T05:08:02.166Z,99.90
2019-06-01T05:10:32.375Z,99.90
2019-06-01T05:13:02.613Z,99.90
2019-06-01T05:15:32.821Z,99.90
2019-06-01T05:18:03.071Z,99.90
2019-06-01T05:20:33.288Z,99.90
2019-06-01T05:23:03.531Z,99.90
2019-06-01T05:25:33.808Z,99.90
2019-06-01T05:28:04.041Z,99.90
2019-06-01T05:30:34.332Z,99.90
2019-06-01T05:33:18.527Z,99.90
2019-06-01T05:35:36.941Z,99.90
2019-06-01T05:38:08.119Z,99.90
2019-06-01T05:40:38.487Z,99.90
2019-06-01T05:43:13.048Z,99.90
2019-06-01T05:45:40.627Z,99.90
2019-06-01T05:48:12.995Z,99.90
2019-06-01T05:50:43.359Z,99.90
2019-06-01T05:53:14.557Z,99.90
2019-06-01T05:55:44.853Z,99.90
2019-06-01T05:58:15.184Z,99.90
2019-06-01T06:00:45.722Z,99.90
2019-06-01T06:03:20.234Z,99.90
2019-06-01T06:05:47.859Z,99.90
2019-06-01T06:08:18.124Z,99.90
2019-06-01T06:10:48.383Z,99.90
2019-06-01T06:13:19.397Z,99.90
2019-06-01T06:15:49.679Z,99.90
2019-06-01T06:18:19.901Z,99.90
2019-06-01T06:20:50.222Z,99.90
2019-06-01T06:23:20.597Z,99.90
2019-06-01T06:25:50.947Z,99.90
2019-06-01T06:28:21.177Z,99.90
2019-06-01T06:30:51.617Z,99.90
2019-06-01T06:33:21.879Z,99.90
2019-06-01T06:35:52.126Z,99.90
2019-06-01T06:38:22.407Z,99.90
2019-06-01T06:40:52.641Z,99.90
2019-06-01T06:43:31.083Z,99.90
2019-06-01T06:45:54.777Z,99.90
2019-06-01T06:48:25.330Z,99.90
2019-06-01T06:50:55.718Z,99.90
2019-06-01T06:53:34.818Z,99.90
2019-06-01T06:55:57.859Z,99.90
2019-06-01T06:58:28.111Z,99.90
2019-06-01T07:00:58.395Z,99.90
2019-06-01T07:03:28.635Z,99.90
2019-06-01T07:05:58.919Z,99.90
2019-06-01T07:08:29.145Z,99.90
2019-06-01T07:10:59.365Z,99.90
2019-06-01T07:13:29.570Z,99.90
2019-06-01T07:15:59.850Z,99.90
2019-06-01T07:18:30.043Z,99.90
2019-06-01T07:21:00.279Z,99.90
2019-06-01T07:23:30.488Z,99.90
2019-06-01T07:26:00.756Z,99.90
2019-06-01T07:28:30.974Z,99.90
2019-06-01T07:31:01.188Z,99.90
2019-06-01T07:33:32.647Z,99.90
2019-06-01T07:36:02.954Z,99.90
2019-06-01T07:38:33.301Z,99.90
2019-06-01T07:41:03.663Z,99.90
2019-06-01T07:43:33.975Z,99.90
2019-06-01T07:46:04.491Z,99.90
2019-06-01T07:48:34.719Z,99.90
2019-06-01T07:51:04.988Z,99.90
2019-06-01T07:53:35.186Z,99.60
2019-06-01T07:56:05.541Z,99.30
2019-06-01T07:58:36.122Z,98.80
2019-06-01T08:01:06.379Z,98.40
2019-06-01T08:03:36.650Z,97.90
2019-06-01T08:06:07.004Z,96.70
2019-06-01T08:08:37.209Z,96.00
2019-06-01T08:11:07.460Z,95.50
2019-06-01T08:13:37.858Z,95.20
2019-06-01T08:16:08.110Z,94.90
2019-06-01T08:18:38.297Z,94.70
2019-06-01T08:21:08.538Z,93.70
2019-06-01T08:23:38.731Z,93.30
2019-06-01T08:26:08.941Z,92.90
2019-06-01T08:28:39.127Z,91.80
2019-06-01T08:31:09.330Z,90.50
2019-06-01T08:33:39.555Z,90.00
2019-06-01T08:36:09.756Z,89.10
2019-06-01T08:38:40.031Z,87.90
2019-06-01T08:41:10.229Z,86.50
2019-06-01T08:43:40.477Z,85.60
2019-06-01T08:46:11.701Z,85.30
2019-06-01T08:48:41.999Z,83.80
2019-06-01T08:51:12.235Z,81.50
2019-06-01T08:53:42.548Z,80.00
2019-06-01T08:56:12.758Z,78.90
2019-06-01T08:58:42.978Z,77.60
2019-06-01T09:01:13.235Z,76.40
2019-06-01T09:03:46.598Z,75.60
2019-06-01T09:06:15.435Z,75.40
2019-06-01T09:08:45.752Z,75.40
2019-06-01T09:11:15.968Z,73.30
2019-06-01T09:13:46.206Z,72.50
2019-06-01T09:16:16.422Z,71.90
2019-06-01T09:18:46.734Z,71.20
2019-06-01T09:21:17.015Z,69.70
2019-06-01T09:23:47.252Z,68.50
2019-06-01T09:26:17.432Z,68.00
2019-06-01T09:28:47.632Z,67.20
2019-06-01T09:31:17.886Z,66.40
2019-06-01T09:33:48.096Z,65.80
2019-06-01T09:36:18.342Z,65.20
2019-06-01T09:38:48.538Z,63.90
2019-06-01T09:41:18.782Z,63.00
2019-06-01T09:43:48.964Z,61.70
2019-06-01T09:46:19.176Z,60.80
2019-06-01T09:48:49.386Z,60.20
2019-06-01T09:51:19.622Z,59.80
2019-06-01T09:53:49.826Z,59.50
2019-06-01T09:56:20.021Z,58.50
2019-06-01T09:58:50.250Z,58.20
2019-06-01T10:01:20.462Z,57.90
2019-06-01T10:03:50.767Z,57.80
2019-06-01T10:06:20.957Z,57.80
2019-06-01T10:08:51.185Z,56.90
2019-06-01T10:11:21.392Z,56.10
2019-06-01T10:13:51.801Z,55.40
2019-06-01T10:16:22.078Z,55.10
2019-06-01T10:18:52.295Z,54.80
2019-06-01T10:21:22.492Z,54.60
2019-06-01T10:23:52.702Z,54.30
2019-06-01T10:26:22.920Z,53.60
2019-06-01T10:28:53.151Z,53.50
2019-06-01T10:31:23.358Z,53.20
2019-06-01T10:33:53.578Z,53.50
2019-06-01T10:36:23.862Z,53.40
2019-06-01T10:38:54.093Z,52.90
2019-06-01T10:41:24.323Z,52.50
2019-06-01T10:43:54.522Z,52.30
2019-06-01T10:46:24.719Z,51.80
2019-06-01T10:48:54.947Z,51.70
2019-06-01T10:51:25.183Z,51.70
2019-06-01T10:53:55.405Z,51.20
2019-06-01T10:56:25.625Z,51.00
2019-06-01T10:59:00.345Z,50.80
2019-06-01T11:01:27.749Z,50.90
2019-06-01T11:03:58.030Z,50.90
2019-06-01T11:06:39.961Z,51.60
2019-06-01T11:09:00.163Z,51.60
2019-06-01T11:11:30.393Z,51.50
2019-06-01T11:14:00.629Z,51.90
2019-06-01T11:16:30.854Z,52.20
2019-06-01T11:19:01.099Z,52.50
2019-06-01T11:21:31.288Z,52.90
2019-06-01T11:24:01.537Z,52.80
2019-06-01T11:26:31.817Z,53.00
2019-06-01T11:29:02.075Z,53.00
2019-06-01T11:31:33.806Z,52.70
2019-06-01T11:34:04.251Z,52.80
2019-06-01T11:36:34.481Z,52.80
2019-06-01T11:39:07.420Z,52.80
2019-06-01T11:41:38.494Z,52.20
2019-06-01T11:44:08.757Z,52.30
2019-06-01T11:46:38.985Z,51.80
2019-06-01T11:49:09.225Z,50.70
2019-06-01T11:51:39.508Z,49.40
2019-06-01T11:54:09.932Z,48.50
2019-06-01T11:56:41.318Z,47.80
2019-06-01T11:59:11.868Z,47.30
2019-06-01T12:01:42.166Z,47.10
2019-06-01T12:04:12.396Z,47.40
2019-06-01T12:06:43.762Z,47.80
2019-06-01T12:09:14.331Z,48.00
2019-06-01T12:11:44.575Z,47.70
2019-06-01T12:14:14.807Z,47.80
2019-06-01T12:16:45.060Z,47.30
2019-06-01T12:19:15.278Z,47.00
2019-06-01T12:21:45.538Z,46.60
2019-06-01T12:24:15.794Z,47.10
2019-06-01T12:26:47.501Z,47.30
2019-06-01T12:29:17.870Z,47.40
2019-06-01T12:31:48.271Z,47.40
2019-06-01T12:34:18.459Z,47.00
2019-06-01T12:36:48.708Z,47.40
2019-06-01T12:39:19.143Z,46.70
2019-06-01T12:41:49.493Z,45.80
2019-06-01T12:44:19.820Z,45.20
2019-06-01T12:46:50.222Z,44.60
2019-06-01T12:49:20.419Z,44.10
2019-06-01T12:51:50.667Z,43.60
2019-06-01T12:54:20.959Z,43.80
2019-06-01T12:56:51.144Z,43.80
2019-06-01T12:59:21.378Z,43.80
2019-06-01T13:01:51.658Z,43.90
2019-06-01T13:04:21.946Z,43.90
2019-06-01T13:06:54.017Z,43.80
2019-06-01T13:09:24.147Z,43.70
2019-06-01T13:11:54.362Z,43.60
2019-06-01T13:14:24.570Z,43.50
2019-06-01T13:17:05.987Z,43.60
2019-06-01T13:19:26.787Z,44.20
2019-06-01T13:21:56.996Z,44.10
2019-06-01T13:24:27.206Z,44.00
2019-06-01T13:26:57.451Z,43.10
2019-06-01T13:29:27.652Z,42.50
2019-06-01T13:31:57.925Z,42.10
2019-06-01T13:34:28.161Z,41.60
2019-06-01T13:36:58.394Z,41.80
2019-06-01T13:39:28.602Z,41.90
2019-06-01T13:41:58.883Z,42.10
2019-06-01T13:44:29.166Z,42.50
2019-06-01T13:46:59.447Z,42.30
2019-06-01T13:49:29.662Z,42.20
2019-06-01T13:51:59.900Z,42.60
2019-06-01T13:54:30.110Z,42.60
2019-06-01T13:57:00.347Z,42.20
2019-06-01T13:59:30.549Z,42.20
2019-06-01T14:02:00.768Z,42.60
2019-06-01T14:04:30.962Z,42.50
2019-06-01T14:07:01.257Z,42.90
2019-06-01T14:09:31.525Z,41.50
2019-06-01T14:12:01.804Z,36.50
2019-06-01T14:14:32.402Z,32.40
2019-06-01T14:17:02.580Z,30.60
2019-06-01T14:19:32.797Z,30.10
2019-06-01T14:22:03.083Z,31.10
2019-06-01T14:24:33.403Z,32.50
2019-06-01T14:27:03.734Z,33.60
2019-06-01T14:29:33.930Z,35.20
2019-06-01T14:32:04.153Z,36.60
2019-06-01T14:34:34.382Z,37.60
2019-06-01T14:37:04.669Z,38.50
2019-06-01T14:39:34.954Z,39.10
2019-06-01T14:42:05.418Z,39.70
2019-06-01T14:44:35.656Z,39.10
2019-06-01T14:47:06.347Z,39.20
2019-06-01T14:49:36.632Z,34.60
2019-06-01T14:52:06.850Z,30.30
2019-06-01T14:54:37.074Z,27.10
2019-06-01T14:57:07.261Z,25.80
2019-06-01T14:59:37.490Z,27.10
2019-06-01T15:02:07.888Z,26.20
2019-06-01T15:04:38.112Z,24.40
2019-06-01T15:07:08.338Z,22.50
2019-06-01T15:09:38.650Z,21.50
2019-06-01T15:12:08.873Z,21.30
2019-06-01T15:14:39.077Z,20.00
2019-06-01T15:17:09.304Z,18.90
2019-06-01T15:19:39.565Z,18.50
2019-06-01T15:22:09.946Z,18.50
2019-06-01T15:24:40.138Z,17.90
2019-06-01T15:27:10.361Z,17.10
2019-06-01T15:29:40.590Z,16.50
2019-06-01T15:32:11.952Z,16.20
2019-06-01T15:34:42.167Z,15.50
2019-06-01T15:37:12.367Z,15.00
2019-06-01T15:39:42.649Z,15.20
2019-06-01T15:42:12.879Z,15.40
2019-06-01T15:44:43.075Z,15.00
2019-06-01T15:47:13.284Z,14.60
2019-06-01T15:49:43.541Z,14.30
2019-06-01T15:52:13.877Z,14.60
2019-06-01T15:54:44.137Z,16.60
2019-06-01T15:57:14.355Z,18.40
2019-06-01T15:59:44.573Z,20.30
2019-06-01T16:02:14.770Z,21.90
2019-06-01T16:04:45.036Z,23.60
2019-06-01T16:07:15.247Z,25.20
2019-06-01T16:09:45.445Z,26.30
2019-06-01T16:12:15.665Z,27.40
2019-06-01T16:14:45.947Z,27.90
2019-06-01T16:17:16.199Z,28.80
2019-06-01T16:19:46.389Z,28.90
2019-06-01T16:22:16.665Z,29.10
2019-06-01T16:24:46.877Z,29.60
2019-06-01T16:27:17.104Z,29.70
2019-06-01T16:29:47.311Z,29.80
2019-06-01T16:32:17.574Z,30.00
2019-06-01T16:34:47.962Z,30.40
2019-06-01T16:37:18.177Z,30.50
2019-06-01T16:39:58.788Z,30.80
2019-06-01T16:42:20.313Z,31.30
2019-06-01T16:44:50.707Z,31.50
2019-06-01T16:47:20.901Z,31.90
2019-06-01T16:49:51.122Z,31.90
2019-06-01T16:52:21.361Z,32.00
2019-06-01T16:54:51.638Z,32.60
2019-06-01T16:57:21.872Z,32.40
2019-06-01T16:59:53.108Z,32.40
2019-06-01T17:02:23.368Z,32.90
2019-06-01T17:04:53.585Z,32.80
2019-06-01T17:07:23.797Z,32.10
2019-06-01T17:09:54.072Z,32.00
2019-06-01T17:12:24.319Z,32.70
2019-06-01T17:14:54.514Z,33.30
2019-06-01T17:17:25.023Z,33.70
2019-06-01T17:19:55.268Z,34.00
2019-06-01T17:22:25.477Z,34.30
2019-06-01T17:24:55.756Z,34.70
2019-06-01T17:27:25.961Z,35.00
2019-06-01T17:29:56.192Z,35.40
2019-06-01T17:32:26.397Z,36.50
2019-06-01T17:34:56.634Z,36.80
2019-06-01T17:37:26.843Z,36.70
2019-06-01T17:39:57.064Z,36.70
2019-06-01T17:42:27.293Z,36.50
2019-06-01T17:44:57.518Z,36.60
2019-06-01T17:47:27.797Z,37.10
2019-06-01T17:49:58.020Z,37.00
2019-06-01T17:52:28.275Z,37.20
2019-06-01T17:57:18.874Z,37.20
2019-06-01T17:59:49.096Z,38.00
2019-06-01T18:02:19.308Z,38.00
2019-06-01T18:04:49.634Z,37.80
2019-06-01T18:07:19.864Z,38.30
2019-06-01T18:09:50.090Z,38.30
2019-06-01T18:12:20.472Z,38.40
2019-06-01T18:14:50.706Z,38.40
2019-06-01T18:17:21.001Z,38.50
2019-06-01T18:19:51.210Z,38.70
2019-06-01T18:22:21.502Z,38.80
2019-06-01T18:24:52.002Z,39.00
2019-06-01T18:27:22.295Z,39.00
2019-06-01T18:29:52.519Z,39.10
2019-06-01T18:32:22.810Z,39.20
2019-06-01T18:34:53.030Z,39.20
2019-06-01T18:37:23.244Z,39.50
2019-06-01T18:39:53.597Z,39.50
2019-06-01T18:42:27.264Z,39.70
2019-06-01T18:44:57.473Z,39.80
2019-06-01T18:47:32.319Z,40.20
2019-06-01T18:50:00.021Z,40.50
2019-06-01T18:52:30.244Z,42.30
2019-06-01T18:55:00.459Z,42.90
2019-06-01T18:57:31.548Z,43.40
2019-06-01T19:00:01.817Z,43.70
2019-06-01T19:02:32.128Z,43.30
2019-06-01T19:05:02.349Z,44.50
2019-06-01T19:07:32.591Z,45.60
2019-06-01T19:10:03.114Z,46.80
2019-06-01T19:12:33.348Z,46.90
2019-06-01T19:15:11.014Z,46.50
2019-06-01T19:17:37.462Z,45.90
2019-06-01T19:20:08.688Z,46.70
2019-06-01T19:22:38.972Z,48.20
2019-06-01T19:25:11.187Z,49.30
2019-06-01T19:27:41.757Z,50.90
2019-06-01T19:30:15.078Z,51.40
2019-06-01T19:32:45.374Z,52.50
2019-06-01T19:35:15.595Z,53.50
2019-06-01T19:37:46.565Z,54.30
2019-06-01T19:40:21.500Z,55.10
2019-06-01T19:42:51.744Z,55.70
2019-06-01T19:45:28.817Z,56.20
2019-06-01T19:47:53.957Z,56.20
2019-06-01T19:50:24.173Z,56.40
2019-06-01T19:52:54.375Z,56.80
2019-06-01T19:55:24.675Z,57.10
2019-06-01T19:57:54.904Z,57.40
2019-06-01T20:00:25.271Z,57.90
2019-06-01T20:02:55.573Z,58.20
2019-06-01T20:05:25.764Z,58.70
2019-06-01T20:07:56.099Z,59.10
2019-06-01T20:10:26.493Z,59.40
2019-06-01T20:12:56.727Z,59.60
2019-06-01T20:15:26.935Z,60.40
2019-06-01T20:17:57.281Z,60.50
2019-06-01T20:20:27.541Z,61.00
2019-06-01T20:22:57.797Z,61.30
2019-06-01T20:25:28.028Z,62.80
2019-06-01T20:27:58.269Z,62.40
2019-06-01T20:30:28.577Z,62.70
2019-06-01T20:32:58.823Z,63.20
2019-06-01T20:35:29.039Z,63.80
2019-06-01T20:37:59.311Z,65.20
2019-06-01T20:40:29.609Z,65.30
2019-06-01T20:42:59.854Z,66.00
2019-06-01T20:45:30.059Z,66.80
2019-06-01T20:48:00.312Z,67.50
2019-06-01T20:50:30.528Z,68.20
2019-06-01T20:53:00.798Z,68.90
2019-06-01T20:55:31.087Z,68.60
2019-06-01T20:58:01.420Z,68.40
2019-06-01T21:00:32.038Z,68.90
2019-06-01T21:03:02.375Z,69.30
2019-06-01T21:05:32.595Z,69.70
2019-06-01T21:08:02.824Z,70.60
2019-06-01T21:10:33.041Z,71.60
2019-06-01T21:13:06.892Z,72.10
2019-06-01T21:15:35.201Z,72.80
2019-06-01T21:18:05.748Z,73.50
2019-06-01T21:20:37.651Z,74.10
2019-06-01T21:23:07.848Z,75.30
2019-06-01T21:25:38.104Z,75.80
2019-06-01T21:28:08.311Z,76.10
2019-06-01T21:30:38.549Z,76.70
2019-06-01T21:33:08.802Z,77.50
2019-06-01T21:35:39.068Z,78.40
2019-06-01T21:38:09.348Z,79.30
2019-06-01T21:40:39.569Z,80.10
2019-06-01T21:43:23.923Z,80.10
2019-06-01T21:45:41.709Z,80.70
2019-06-01T21:48:12.657Z,81.00
2019-06-01T21:50:42.890Z,81.80
2019-06-01T21:53:13.145Z,82.50
2019-06-01T21:55:43.403Z,83.20
2019-06-01T21:58:13.634Z,83.90
2019-06-01T22:00:45.926Z,84.30
2019-06-01T22:03:16.792Z,85.00
2019-06-01T22:05:47.101Z,85.30
2019-06-01T22:08:17.312Z,85.70
2019-06-01T22:10:47.521Z,86.10
2019-06-01T22:13:20.893Z,86.60
2019-06-01T22:15:49.705Z,87.00
2019-06-01T22:18:19.963Z,86.90
2019-06-01T22:20:50.733Z,86.70
2019-06-01T22:23:21.921Z,86.70
2019-06-01T22:25:52.347Z,87.30
2019-06-01T22:28:22.586Z,88.30
2019-06-01T22:30:52.816Z,89.80
2019-06-01T22:33:23.161Z,90.50
2019-06-01T22:35:53.656Z,91.30
2019-06-01T22:38:23.917Z,92.10
2019-06-01T22:40:54.194Z,92.80
2019-06-01T22:43:41.416Z,93.60
2019-06-01T22:45:56.330Z,94.40
2019-06-01T22:48:26.689Z,95.00
2019-06-01T22:50:58.453Z,95.40
2019-06-01T22:53:28.667Z,95.90
2019-06-01T22:55:58.886Z,96.00
2019-06-01T22:58:29.606Z,96.20
2019-06-01T23:00:59.900Z,96.30
2019-06-01T23:03:30.291Z,96.50
2019-06-01T23:06:00.564Z,96.60
2019-06-01T23:08:31.922Z,96.70
2019-06-01T23:11:02.324Z,97.00
2019-06-01T23:13:32.561Z,97.10
2019-06-01T23:16:02.809Z,97.20
2019-06-01T23:18:33.008Z,97.30
2019-06-01T23:21:03.239Z,96.90
2019-06-01T23:23:33.512Z,96.70
2019-06-01T23:26:03.802Z,96.50
2019-06-01T23:28:34.041Z,96.40
2019-06-01T23:31:04.251Z,96.30
2019-06-01T23:33:34.478Z,96.20
2019-06-01T23:36:04.749Z,96.20
2019-06-01T23:38:34.974Z,96.40
2019-06-01T23:41:05.157Z,96.60
2019-06-01T23:43:35.406Z,97.00
2019-06-01T23:46:05.686Z,97.30
2019-06-01T23:48:35.907Z,97.40
2019-06-01T23:51:06.201Z,97.50
2019-06-01T23:53:36.437Z,97.70
2019-06-01T23:56:06.676Z,97.90
2019-06-01T23:58:36.898Z,98.00
